Ninde, Virginia
Current Conditions -  °F | °C
As of 8:56 PM on Wednesday 22 Oct 2014 (Local Time) from KNYG Reporting Station
Few Clouds Few Clouds  
Wind Chill: 13°   Ceiling: Unl
Heat Index: 13°   Visibility: 10mi
Dew Point:   Wind: 16mph
Humidity: 67%   Direction: 350°N
Pressure: 29.96"   Gusts: 28mph
Location:  38.27°N, 77.06°W
Report Text: KNYG 230056Z AUTO 35014G24KT 10SM FEW120 13/07 A2996 RMK AO2 PK WND 33027/0045 SLP147 T01280067 $
Loading
Personal Weather Stations






























Interactive Weather Map
Tropical Storm Tracking
New forecast layout! Learn more

10-Day Weather Forecast

Advertisements
Track Severe Weather on mobile